createdAt,value
2023-02-14T00:00:43.626Z,133.57
2023-02-14T00:08:54.197Z,155.80
2023-02-14T00:16:59.911Z,180.63
2023-02-14T00:25:08.514Z,178.80
2023-02-14T00:33:13.827Z,156.57
2023-02-14T00:41:22.114Z,143.18
2023-02-14T00:49:29.146Z,134.40
2023-02-14T00:57:40.021Z,166.38
2023-02-14T01:05:45.404Z,141.55
2023-02-14T01:13:54.503Z,135.77
2023-02-14T01:22:01.590Z,129.50
2023-02-14T01:30:11.455Z,141.68
2023-02-14T01:38:16.937Z,141.25
2023-02-14T01:46:25.239Z,140.15
2023-02-14T01:54:32.412Z,145.50
2023-02-14T02:02:40.433Z,140.35
2023-02-14T02:10:45.877Z,139.48
2023-02-14T02:19:07.645Z,126.70
2023-02-14T02:27:31.558Z,119.97
2023-02-14T02:35:57.907Z,126.95
2023-02-14T02:44:13.143Z,121.50
2023-02-14T02:52:42.047Z,117.95
2023-02-14T03:00:49.102Z,121.55
2023-02-14T03:08:57.157Z,109.40
2023-02-14T03:17:31.126Z,98.25
2023-02-14T03:25:49.891Z,99.07
2023-02-14T03:34:02.640Z,100.40
2023-02-14T03:42:15.612Z,90.47
2023-02-14T03:50:22.842Z,84.93
2023-02-14T03:58:34.850Z,90.30
2023-02-14T04:06:40.175Z,89.32
2023-02-14T04:14:48.173Z,77.78
2023-02-14T04:22:54.189Z,107.28
2023-02-14T04:31:04.548Z,94.78
2023-02-14T04:39:10.103Z,87.88
2023-02-14T04:47:18.182Z,91.57
2023-02-14T04:55:23.593Z,103.97
2023-02-14T05:03:31.653Z,90.88
2023-02-14T05:11:37.174Z,93.38
2023-02-14T05:19:45.244Z,95.30
2023-02-14T05:27:50.642Z,104.05
2023-02-14T05:36:01.232Z,95.18
2023-02-14T05:44:06.537Z,91.72
2023-02-14T05:52:14.569Z,94.72
2023-02-14T06:00:21.478Z,82.03
2023-02-14T06:08:29.547Z,82.10
2023-02-14T06:16:34.990Z,77.82
2023-02-14T06:24:42.974Z,73.90
2023-02-14T06:32:48.481Z,77.65
2023-02-14T06:40:57.597Z,75.85
2023-02-14T06:49:04.104Z,105.55
2023-02-14T06:57:12.084Z,121.82
2023-02-14T07:05:19.246Z,127.63
2023-02-14T07:13:27.800Z,111.82
2023-02-14T07:21:33.222Z,101.60
2023-02-14T07:29:41.209Z,103.85
2023-02-14T07:37:46.568Z,98.85
2023-02-14T07:45:54.616Z,87.28
2023-02-14T07:54:00.141Z,87.35
2023-02-14T08:02:08.066Z,82.03
2023-02-14T08:10:14.885Z,84.50
2023-02-14T08:18:23.484Z,74.75
2023-02-14T08:26:28.942Z,73.95
2023-02-14T08:34:36.979Z,66.20
2023-02-14T08:42:42.333Z,66.38
2023-02-14T08:50:50.382Z,63.40
2023-02-14T08:58:57.154Z,62.63
2023-02-14T09:07:05.726Z,56.50
2023-02-14T09:15:12.971Z,59.00
2023-02-14T09:23:21.249Z,53.00
2023-02-14T09:31:28.252Z,53.92
2023-02-14T09:39:36.685Z,46.67
2023-02-14T09:47:48.019Z,50.08
2023-02-14T09:56:03.858Z,44.42
2023-02-14T10:04:24.793Z,41.47
2023-02-14T10:12:38.100Z,47.08
2023-02-14T10:20:47.331Z,38.90
2023-02-14T10:28:56.160Z,38.38
2023-02-14T10:37:20.842Z,32.90
2023-02-14T10:45:36.626Z,39.28
2023-02-14T10:53:48.948Z,43.90
2023-02-14T11:01:59.510Z,36.65
2023-02-14T11:10:05.257Z,37.17
2023-02-14T11:18:25.232Z,38.72
2023-02-14T11:26:34.659Z,36.60
2023-02-14T11:34:44.976Z,36.05
2023-02-14T11:42:54.616Z,38.90
2023-02-14T11:51:10.007Z,40.22
2023-02-14T11:59:22.434Z,41.28
2023-02-14T12:07:34.433Z,38.42
2023-02-14T12:15:41.325Z,39.15
2023-02-14T12:24:00.028Z,37.95
2023-02-14T12:32:23.212Z,38.15
2023-02-14T12:40:40.235Z,37.30
2023-02-14T12:49:00.809Z,36.60
2023-02-14T12:57:20.770Z,31.65
2023-02-14T13:05:34.695Z,26.30
2023-02-14T13:14:04.504Z,28.55
2023-02-14T13:22:15.115Z,29.10
2023-02-14T13:30:31.071Z,25.48
2023-02-14T13:38:41.535Z,23.52
2023-02-14T13:46:56.737Z,24.70
2023-02-14T13:55:05.982Z,24.08
2023-02-14T14:03:16.917Z,57.95
2023-02-14T14:12:06.399Z,27.02
2023-02-14T14:20:48.018Z,28.08
2023-02-14T14:28:53.750Z,23.20
2023-02-14T14:37:11.621Z,26.27
2023-02-14T14:45:26.113Z,20.77
2023-02-14T14:53:43.396Z,21.50
2023-02-14T15:01:53.694Z,20.70
2023-02-14T15:10:02.190Z,21.70
2023-02-14T15:18:09.750Z,33.35
2023-02-14T15:26:26.151Z,40.53
2023-02-14T15:34:36.218Z,38.30
2023-02-14T15:42:48.510Z,34.05
2023-02-14T15:50:55.983Z,39.88
2023-02-14T15:59:07.541Z,35.72
2023-02-14T16:07:30.256Z,32.50
2023-02-14T16:15:42.283Z,30.30
2023-02-14T16:23:48.952Z,35.13
2023-02-14T16:32:15.724Z,33.88
2023-02-14T16:40:28.442Z,36.05
2023-02-14T16:48:36.604Z,31.60
2023-02-14T16:56:47.405Z,35.75
2023-02-14T17:04:55.389Z,38.95
2023-02-14T17:13:05.719Z,42.30
2023-02-14T17:21:13.786Z,49.55
2023-02-14T17:29:20.406Z,53.45
2023-02-14T17:37:29.895Z,61.20
2023-02-14T17:45:35.482Z,76.30
2023-02-14T17:53:43.948Z,78.05
2023-02-14T18:01:49.443Z,82.85
2023-02-14T18:09:57.545Z,86.95
2023-02-14T18:18:03.164Z,88.18
2023-02-14T18:26:14.269Z,81.22
2023-02-14T18:34:19.602Z,87.55
2023-02-14T18:42:27.685Z,85.45
2023-02-14T18:50:34.206Z,83.97
2023-02-14T18:58:43.294Z,97.78
2023-02-14T19:06:49.580Z,96.63
2023-02-14T19:14:58.536Z,101.05
2023-02-14T19:23:03.963Z,100.22
2023-02-14T19:31:12.159Z,108.13
2023-02-14T19:39:19.167Z,109.00
2023-02-14T19:47:45.651Z,142.20
2023-02-14T19:55:51.884Z,138.15
2023-02-14T20:04:00.729Z,148.55
2023-02-14T20:12:06.541Z,126.88
2023-02-14T20:20:16.756Z,129.07
2023-02-14T20:28:22.039Z,110.20
2023-02-14T20:36:30.477Z,98.40
2023-02-14T20:44:35.882Z,82.60
2023-02-14T20:52:43.838Z,80.20
2023-02-14T21:00:49.497Z,72.97
2023-02-14T21:08:57.564Z,72.65
2023-02-14T21:17:14.378Z,77.78
2023-02-14T21:25:24.748Z,72.32
2023-02-14T21:33:32.232Z,76.60
2023-02-14T21:41:40.742Z,74.72
2023-02-14T21:49:58.443Z,76.05
2023-02-14T21:58:06.452Z,80.78
2023-02-14T22:06:13.320Z,84.35
2023-02-14T22:14:21.793Z,86.03
2023-02-14T22:22:27.149Z,85.72
2023-02-14T22:30:35.507Z,80.75
2023-02-14T22:38:41.520Z,158.02
2023-02-14T22:46:49.417Z,131.50
2023-02-14T22:54:55.695Z,105.75
2023-02-14T23:03:03.783Z,110.75
2023-02-14T23:11:10.764Z,112.47
2023-02-14T23:19:32.768Z,114.20
2023-02-14T23:27:40.557Z,105.20
2023-02-14T23:35:48.620Z,100.80
2023-02-14T23:43:54.000Z,96.97
2023-02-14T23:52:06.561Z,92.88
